Time;durP1;ratioP1;P1;durP2;ratioP2;P2;SDS_P1;SDS_P2;PMS_P1;PMS_P2;Temp;Humidity;BMP_temperature;BMP_pressure;BME280_temperature;BME280_humidity;BME280_pressure;Samples;Min_cycle;Max_cycle;Signal;HPM_P1;HPM_P2
2023/10/13 00:02:28;;;;;;;7.70;5.17;;;17.70;99.50;;;;;;10533193;28;20513;-67
2023/10/13 00:07:28;;;;;;;7.40;5.60;;;17.70;99.50;;;;;;10531159;28;20410;-67
2023/10/13 00:12:31;;;;;;;6.75;5.32;;;17.70;99.50;;;;;;10528660;28;20398;-66
2023/10/13 00:17:32;;;;;;;6.55;5.00;;;17.70;99.60;;;;;;10509043;28;20404;-67
2023/10/13 00:22:34;;;;;;;7.47;4.93;;;17.70;99.60;;;;;;10528940;28;20402;-67
2023/10/13 00:27:36;;;;;;;8.13;5.43;;;17.70;99.60;;;;;;10529074;28;20751;-67
2023/10/13 00:32:39;;;;;;;7.20;5.30;;;17.70;99.60;;;;;;10534731;28;21073;-68
2023/10/13 00:37:44;;;;;;;7.28;5.50;;;17.70;99.50;;;;;;10534610;28;20418;-67
2023/10/13 00:42:51;;;;;;;6.60;4.90;;;17.90;99.60;;;;;;10534783;28;20454;-67
2023/10/13 00:47:56;;;;;;;7.05;5.22;;;17.90;99.60;;;;;;10546815;28;20459;-66
2023/10/13 00:52:58;;;;;;;7.28;5.40;;;18.00;99.70;;;;;;10523957;28;20977;-67
2023/10/13 00:58:03;;;;;;;6.70;5.45;;;17.80;99.60;;;;;;10540406;28;20431;-66
2023/10/13 01:03:06;;;;;;;7.45;5.43;;;17.80;99.60;;;;;;10533349;28;20402;-66
2023/10/13 01:08:11;;;;;;;7.38;5.15;;;17.80;99.60;;;;;;10513177;28;20451;-67
2023/10/13 01:13:12;;;;;;;6.43;4.93;;;17.80;99.80;;;;;;10523953;28;20409;-67
2023/10/13 01:18:14;;;;;;;7.23;5.20;;;17.80;99.60;;;;;;10531676;28;20455;-67
2023/10/13 01:23:24;;;;;;;6.10;5.00;;;17.80;99.60;;;;;;10540393;28;20415;-68
2023/10/13 01:28:24;;;;;;;7.00;5.30;;;17.80;99.60;;;;;;10516056;28;20739;-67
2023/10/13 01:33:28;;;;;;;7.80;5.28;;;17.80;99.60;;;;;;10535779;28;20400;-67
2023/10/13 01:38:33;;;;;;;7.83;5.40;;;17.90;99.70;;;;;;10526335;28;20421;-66
2023/10/13 01:43:34;;;;;;;6.68;5.30;;;17.80;99.60;;;;;;10539877;28;20415;-67
2023/10/13 01:48:40;;;;;;;8.27;5.57;;;17.80;99.60;;;;;;10515501;28;20410;-67
2023/10/13 01:53:43;;;;;;;6.68;5.40;;;17.80;99.70;;;;;;10539489;28;20406;-67
2023/10/13 01:58:47;;;;;;;8.10;5.73;;;17.90;99.70;;;;;;10524009;28;20478;-68
2023/10/13 02:03:49;;;;;;;6.93;5.45;;;17.90;99.70;;;;;;10510010;28;20435;-67
2023/10/13 02:08:52;;;;;;;7.97;5.60;;;17.90;99.70;;;;;;10521052;28;20438;-68
2023/10/13 02:13:55;;;;;;;7.60;5.70;;;17.90;99.70;;;;;;10521441;28;20404;-65
2023/10/13 02:18:57;;;;;;;7.15;5.40;;;17.90;99.80;;;;;;10528173;28;20911;-66
2023/10/13 02:24:03;;;;;;;6.20;5.53;;;17.90;99.80;;;;;;10519290;28;20543;-66
2023/10/13 02:29:13;;;;;;;7.60;5.67;;;17.90;99.80;;;;;;10521881;28;20400;-66
2023/10/13 02:34:14;;;;;;;7.83;5.83;;;17.90;99.80;;;;;;10525729;28;20479;-66
2023/10/13 02:39:16;;;;;;;7.13;5.40;;;17.90;99.70;;;;;;10533260;28;20416;-66
2023/10/13 02:44:31;;;;;;;6.85;5.65;;;17.90;99.80;;;;;;10527365;28;20543;-66
2023/10/13 02:49:36;;;;;;;7.63;5.90;;;17.90;99.80;;;;;;10519703;28;20832;-66
2023/10/13 02:54:47;;;;;;;7.60;6.00;;;17.90;99.80;;;;;;10523065;28;20397;-66
2023/10/13 02:59:47;;;;;;;6.97;5.80;;;17.90;99.80;;;;;;10508667;28;20444;-66
2023/10/13 03:04:48;;;;;;;7.00;5.70;;;17.90;99.80;;;;;;10536147;28;20408;-66
2023/10/13 03:09:52;;;;;;;7.27;5.80;;;17.90;99.80;;;;;;10528846;28;20807;-66
2023/10/13 03:15:09;;;;;;;7.80;5.80;;;17.90;99.90;;;;;;10516814;28;20985;-64
2023/10/13 03:20:15;;;;;;;7.25;5.90;;;17.90;99.90;;;;;;10517318;28;20422;-65
2023/10/13 03:30:35;;;;;;;7.43;6.18;;;17.90;99.90;;;;;;10519720;28;20394;-65
2023/10/13 03:35:43;;;;;;;7.83;6.57;;;17.90;99.90;;;;;;10544687;28;20417;-66
2023/10/13 03:40:56;;;;;;;8.82;6.53;;;18.00;99.90;;;;;;10528198;28;20404;-66
2023/10/13 03:46:08;;;;;;;8.20;6.53;;;18.00;99.90;;;;;;10537773;28;20410;-67
2023/10/13 03:51:14;;;;;;;7.75;6.43;;;18.00;99.90;;;;;;10542701;28;20927;-66
2023/10/13 03:56:15;;;;;;;11.13;7.47;;;18.00;99.90;;;;;;10529910;28;20429;-66
2023/10/13 04:01:17;;;;;;;8.77;6.73;;;18.00;99.90;;;;;;10532175;28;20401;-65
2023/10/13 04:06:18;;;;;;;9.23;6.50;;;17.90;99.90;;;;;;10535811;28;20393;-66
2023/10/13 04:16:50;;;;;;;8.50;6.90;;;18.10;99.90;;;;;;10531942;28;20424;-66
2023/10/13 04:21:58;;;;;;;8.83;7.03;;;18.00;99.90;;;;;;10508094;28;20555;-66
2023/10/13 04:32:19;;;;;;;10.32;6.93;;;18.00;99.90;;;;;;10531998;28;21137;-65
2023/10/13 04:37:29;;;;;;;9.30;6.90;;;18.00;99.90;;;;;;10525220;28;20740;-66
2023/10/13 04:47:57;;;;;;;9.70;7.10;;;18.00;99.90;;;;;;10536008;28;20455;-66
2023/10/13 04:53:13;;;;;;;9.30;6.93;;;18.00;99.90;;;;;;10526023;28;20427;-66
2023/10/13 06:28:42;;;;;;;7.03;5.00;;;18.00;99.90;;;;;;10530687;28;20600;-66
2023/10/13 06:33:45;;;;;;;7.80;4.88;;;18.00;99.90;;;;;;10514174;28;20833;-65
2023/10/13 06:38:54;;;;;;;7.15;5.40;;;18.00;99.90;;;;;;10516339;28;20421;-66
2023/10/13 06:44:05;;;;;;;7.45;5.55;;;18.00;99.90;;;;;;10509069;28;20419;-65
2023/10/13 06:49:05;;;;;;;8.75;4.97;;;18.00;99.90;;;;;;10521905;28;20887;-65
2023/10/13 06:54:28;;;;;;;6.03;4.60;;;18.00;99.90;;;;;;10510809;28;20758;-64
2023/10/13 06:59:32;;;;;;;6.83;4.57;;;18.00;99.90;;;;;;10531084;28;20401;-64
2023/10/13 07:04:33;;;;;;;5.32;4.10;;;18.10;99.90;;;;;;10533282;28;20414;-68
2023/10/13 07:14:34;;;;;;;6.43;4.23;;;18.10;99.90;;;;;;10533810;28;20781;-66
2023/10/13 07:19:45;;;;;;;6.07;4.20;;;18.10;99.90;;;;;;10495770;28;20621;-66
2023/10/13 07:24:49;;;;;;;7.53;5.27;;;18.10;99.90;;;;;;10529354;28;20875;-65
2023/10/13 07:30:14;;;;;;;7.75;4.32;;;18.10;99.90;;;;;;10529858;28;20404;-68
2023/10/13 07:35:19;;;;;;;6.15;3.90;;;18.20;99.90;;;;;;10530664;28;20408;-65
2023/10/13 07:45:32;;;;;;;6.13;4.00;;;18.10;99.90;;;;;;10534173;28;20508;-66
2023/10/13 07:50:35;;;;;;;5.90;4.13;;;18.30;99.90;;;;;;10525491;28;20401;-65
2023/10/13 07:55:38;;;;;;;5.43;4.10;;;18.10;99.90;;;;;;10525680;28;20418;-66
2023/10/13 08:11:23;;;;;;;9.38;4.50;;;18.20;99.90;;;;;;10525394;28;20407;-66
2023/10/13 08:22:15;;;;;;;7.20;4.22;;;18.20;99.90;;;;;;10520844;28;20410;-66
2023/10/13 08:32:56;;;;;;;8.77;4.30;;;18.20;99.90;;;;;;10521897;28;20423;-67
2023/10/13 08:38:03;;;;;;;7.85;4.70;;;18.20;99.90;;;;;;10527718;28;20527;-68
2023/10/13 08:48:07;;;;;;;10.17;4.60;;;18.20;99.90;;;;;;10545391;28;20392;-67
2023/10/13 08:53:26;;;;;;;7.28;4.38;;;18.30;99.90;;;;;;10536880;28;21471;-67
2023/10/13 08:58:59;;;;;;;7.87;4.40;;;18.30;99.90;;;;;;10531384;28;20431;-66
2023/10/13 09:03:49;;;;;;;9.20;4.60;;;18.30;99.90;;;;;;10530480;28;20415;-67
2023/10/13 09:09:07;;;;;;;6.70;4.57;;;18.40;99.90;;;;;;10532407;28;20424;-67
2023/10/13 09:14:32;;;;;;;7.30;4.22;;;18.40;99.90;;;;;;10524899;28;20897;-66
2023/10/13 09:19:45;;;;;;;6.68;4.07;;;18.40;99.90;;;;;;10517153;28;20421;-70
2023/10/13 09:24:51;;;;;;;8.63;4.63;;;18.40;99.90;;;;;;10515762;28;20816;-67
2023/10/13 09:29:56;;;;;;;8.73;4.03;;;18.50;99.90;;;;;;10512237;28;20415;-67
2023/10/13 09:35:02;;;;;;;8.20;4.18;;;18.50;99.90;;;;;;10517441;28;20405;-68
2023/10/13 09:40:07;;;;;;;11.07;4.85;;;18.50;99.90;;;;;;10534687;28;20421;-72
2023/10/13 09:45:12;;;;;;;12.23;4.75;;;18.50;99.90;;;;;;10524245;28;20778;-69
2023/10/13 09:50:23;;;;;;;12.38;4.95;;;18.60;99.90;;;;;;10515171;28;20455;-67
2023/10/13 09:55:30;;;;;;;12.15;4.97;;;18.60;99.90;;;;;;10527626;28;20489;-68
2023/10/13 10:06:04;;;;;;;9.60;4.53;;;18.70;99.90;;;;;;10535756;28;20425;-67
2023/10/13 10:11:27;;;;;;;7.72;4.20;;;18.70;99.90;;;;;;10513791;28;20433;-68
2023/10/13 10:16:49;;;;;;;12.40;5.10;;;18.80;99.90;;;;;;10531118;28;20412;-73
2023/10/13 10:21:50;;;;;;;13.88;5.00;;;18.80;99.90;;;;;;10523165;28;20843;-69
2023/10/13 10:26:52;;;;;;;11.13;5.03;;;18.90;99.90;;;;;;10524413;28;20416;-70
2023/10/13 10:31:52;;;;;;;11.77;4.95;;;19.00;99.90;;;;;;10508396;28;20398;-67
2023/10/13 10:36:54;;;;;;;11.80;4.87;;;19.00;99.90;;;;;;10507665;28;20772;-67
2023/10/13 10:42:01;;;;;;;13.77;4.90;;;19.00;99.90;;;;;;10536109;28;20451;-67
2023/10/13 10:47:31;;;;;;;10.25;4.93;;;19.00;99.90;;;;;;10521345;28;20455;-68
2023/10/13 10:52:36;;;;;;;12.00;5.28;;;19.00;99.90;;;;;;10542979;28;20748;-67
2023/10/13 10:57:37;;;;;;;12.60;5.07;;;19.00;99.90;;;;;;10537519;28;20940;-66
2023/10/13 11:02:38;;;;;;;12.23;4.87;;;19.00;99.90;;;;;;10547531;28;20404;-69
2023/10/13 11:07:50;;;;;;;13.57;4.87;;;19.10;99.90;;;;;;10526384;28;20396;-67
2023/10/13 11:12:55;;;;;;;10.43;4.27;;;19.00;99.90;;;;;;10538729;28;20426;-67
2023/10/13 11:17:58;;;;;;;8.93;4.88;;;19.10;99.90;;;;;;10536215;28;20423;-66
2023/10/13 11:23:00;;;;;;;12.57;4.85;;;19.10;99.90;;;;;;10540539;28;20498;-66
2023/10/13 11:28:17;;;;;;;12.95;5.10;;;19.10;99.90;;;;;;10535986;28;20984;-67
2023/10/13 11:33:23;;;;;;;13.57;5.03;;;19.10;99.90;;;;;;10518193;28;20406;-68
2023/10/13 11:38:34;;;;;;;11.23;4.87;;;19.20;99.90;;;;;;10539311;28;20898;-67
2023/10/13 11:48:44;;;;;;;9.88;5.15;;;19.20;99.90;;;;;;10540027;28;20848;-68
2023/10/13 11:53:45;;;;;;;12.27;5.00;;;19.20;99.90;;;;;;10528543;28;20408;-66
2023/10/13 11:58:47;;;;;;;12.00;4.90;;;19.20;99.90;;;;;;10534494;28;20412;-68
2023/10/13 12:14:29;;;;;;;14.82;6.00;;;19.20;99.90;;;;;;10537619;28;20406;-68
2023/10/13 12:19:30;;;;;;;15.07;5.27;;;19.20;99.90;;;;;;10543732;28;20491;-68
2023/10/13 12:24:39;;;;;;;12.48;5.60;;;19.20;99.90;;;;;;10515451;28;20410;-67
2023/10/13 12:29:46;;;;;;;11.48;5.57;;;19.20;99.90;;;;;;10530818;28;20400;-67
2023/10/13 12:50:57;;;;;;;11.60;5.40;;;19.20;99.90;;;;;;10531131;28;20400;-68
2023/10/13 12:55:57;;;;;;;12.68;6.00;;;19.20;99.90;;;;;;10539756;28;20401;-66
2023/10/13 13:01:06;;;;;;;11.48;5.80;;;19.20;99.90;;;;;;10522501;28;20408;-68
2023/10/13 13:06:07;;;;;;;12.05;5.70;;;19.20;99.90;;;;;;10537647;28;20443;-68
2023/10/13 13:11:07;;;;;;;16.30;6.15;;;19.20;99.90;;;;;;10524518;28;20866;-67
2023/10/13 13:16:09;;;;;;;11.37;5.53;;;19.20;99.90;;;;;;10521997;28;20399;-68
2023/10/13 13:21:12;;;;;;;9.73;5.30;;;19.20;99.90;;;;;;10527035;28;20408;-65
2023/10/13 13:26:15;;;;;;;11.80;5.65;;;19.30;99.90;;;;;;10523720;28;21041;-67
2023/10/13 13:31:17;;;;;;;12.80;5.75;;;19.30;99.90;;;;;;10533386;28;20411;-69
2023/10/13 13:36:19;;;;;;;13.47;5.70;;;19.30;99.90;;;;;;10512182;28;20455;-68
2023/10/13 13:41:20;;;;;;;10.15;5.65;;;19.20;99.90;;;;;;10533697;28;20460;-71
2023/10/13 13:46:24;;;;;;;13.70;6.35;;;19.20;99.90;;;;;;10541301;28;20457;-70
2023/10/13 13:51:27;;;;;;;12.37;5.43;;;19.20;99.90;;;;;;10517145;28;20777;-69
2023/10/13 13:56:30;;;;;;;15.95;6.45;;;19.20;99.90;;;;;;10529105;28;20425;-70
2023/10/13 14:01:34;;;;;;;12.85;6.30;;;19.20;99.90;;;;;;10539260;28;21045;-70
2023/10/13 14:06:34;;;;;;;12.52;6.13;;;19.20;99.90;;;;;;10528624;28;20404;-72
2023/10/13 14:16:44;;;;;;;10.52;5.75;;;19.20;99.90;;;;;;10530708;28;20403;-70
2023/10/13 14:21:53;;;;;;;11.27;6.00;;;19.20;99.90;;;;;;10517127;28;20507;-68
2023/10/13 14:27:13;;;;;;;12.48;6.47;;;19.30;99.90;;;;;;10525244;28;20417;-69
2023/10/13 14:32:17;;;;;;;15.20;6.30;;;19.20;99.90;;;;;;10525046;28;20426;-69
2023/10/13 14:37:26;;;;;;;12.93;5.85;;;19.20;99.90;;;;;;10517034;28;20875;-68
2023/10/13 14:42:27;;;;;;;14.27;5.90;;;19.30;99.90;;;;;;10523939;28;20794;-66
2023/10/13 14:47:28;;;;;;;11.95;6.20;;;19.30;99.90;;;;;;10508339;28;20411;-68
2023/10/13 14:52:32;;;;;;;11.40;5.75;;;19.30;99.90;;;;;;10510013;28;20411;-70
2023/10/13 14:57:37;;;;;;;17.45;6.72;;;19.30;99.90;;;;;;10531258;28;20480;-70
2023/10/13 15:02:38;;;;;;;15.83;6.50;;;19.30;99.90;;;;;;10522916;28;20464;-68
2023/10/13 15:07:43;;;;;;;18.00;7.00;;;19.20;99.90;;;;;;10511865;28;20407;-68
2023/10/13 15:12:44;;;;;;;18.02;6.65;;;19.20;99.90;;;;;;10525870;28;20444;-73
2023/10/13 15:17:45;;;;;;;14.60;6.25;;;19.20;99.90;;;;;;10509087;28;20435;-68
2023/10/13 15:22:49;;;;;;;12.13;6.83;;;19.20;99.90;;;;;;10520480;28;20412;-70
2023/10/13 15:27:55;;;;;;;13.68;6.57;;;19.20;99.90;;;;;;10522806;28;20406;-70
2023/10/13 15:32:57;;;;;;;15.00;6.90;;;19.20;99.90;;;;;;10511925;28;20465;-71
2023/10/13 15:37:57;;;;;;;15.13;6.75;;;19.20;99.90;;;;;;10491665;28;20408;-69
2023/10/13 15:42:59;;;;;;;13.07;6.70;;;19.20;99.90;;;;;;10507037;28;20414;-69
2023/10/13 15:48:04;;;;;;;15.33;7.13;;;19.20;99.90;;;;;;10536029;28;20405;-66
2023/10/13 15:53:06;;;;;;;12.63;6.53;;;19.20;99.90;;;;;;10522884;28;20410;-68
2023/10/13 15:58:07;;;;;;;13.73;6.30;;;19.20;99.90;;;;;;10523914;28;20405;-69
2023/10/13 16:03:10;;;;;;;12.52;6.40;;;19.20;99.90;;;;;;10516564;28;20413;-68
2023/10/13 16:08:11;;;;;;;14.23;6.30;;;19.10;99.90;;;;;;10522575;28;20429;-68
2023/10/13 16:13:15;;;;;;;12.32;5.85;;;19.10;99.90;;;;;;10514809;28;20409;-68
2023/10/13 16:18:21;;;;;;;10.10;5.45;;;19.10;99.90;;;;;;10509035;28;20444;-68
2023/10/13 16:23:23;;;;;;;12.50;5.40;;;19.10;99.90;;;;;;10508298;28;20420;-68
2023/10/13 16:28:24;;;;;;;12.47;5.80;;;19.10;99.90;;;;;;10514720;28;20903;-68
2023/10/13 16:33:25;;;;;;;11.07;5.43;;;19.10;99.90;;;;;;10511179;28;20507;-68
2023/10/13 16:38:25;;;;;;;8.80;5.75;;;19.10;99.90;;;;;;10517138;28;20893;-68
2023/10/13 16:43:26;;;;;;;13.02;5.65;;;19.10;99.90;;;;;;10522190;28;20452;-68
2023/10/13 16:48:27;;;;;;;11.73;5.57;;;19.10;99.90;;;;;;10522671;28;20397;-67
2023/10/13 16:53:27;;;;;;;11.17;5.33;;;19.10;99.90;;;;;;10506973;28;20454;-68
2023/10/13 16:58:30;;;;;;;11.80;5.70;;;19.10;99.90;;;;;;10529824;28;20396;-69
2023/10/13 17:03:31;;;;;;;10.75;6.05;;;19.10;99.90;;;;;;10507523;28;20444;-68
2023/10/13 17:08:31;;;;;;;12.00;6.18;;;19.10;99.90;;;;;;10525124;28;20559;-68
2023/10/13 17:13:32;;;;;;;10.77;5.35;;;19.20;99.90;;;;;;10530836;28;20409;-67
2023/10/13 17:18:33;;;;;;;8.93;5.00;;;19.10;99.90;;;;;;10523053;28;20531;-68
2023/10/13 17:23:34;;;;;;;9.77;4.80;;;19.00;99.90;;;;;;10515102;28;20408;-69
2023/10/13 17:28:35;;;;;;;9.63;5.30;;;19.10;99.90;;;;;;10499651;28;20412;-67
2023/10/13 17:33:39;;;;;;;10.30;5.07;;;19.10;99.90;;;;;;10519954;28;20923;-69
2023/10/13 17:38:39;;;;;;;9.20;4.93;;;19.20;99.90;;;;;;10517830;28;20428;-68
2023/10/13 17:43:40;;;;;;;14.30;5.07;;;19.20;99.90;;;;;;10522326;28;20507;-68
2023/10/13 17:48:43;;;;;;;10.95;5.20;;;19.20;99.90;;;;;;10531167;28;20492;-66
2023/10/13 17:53:46;;;;;;;10.27;5.30;;;19.20;99.90;;;;;;10521158;28;20405;-67
2023/10/13 17:58:46;;;;;;;11.15;5.50;;;19.20;99.90;;;;;;10529751;28;20825;-67
2023/10/13 18:03:49;;;;;;;12.00;6.07;;;19.20;99.90;;;;;;10523025;28;20407;-66
2023/10/13 18:08:51;;;;;;;9.40;5.15;;;19.20;99.90;;;;;;10521720;28;20966;-67
2023/10/13 18:13:52;;;;;;;9.67;5.73;;;19.20;99.90;;;;;;10519264;28;20412;-68
2023/10/13 18:18:55;;;;;;;10.17;5.30;;;19.10;99.90;;;;;;10520749;28;20409;-67
2023/10/13 18:23:56;;;;;;;11.10;5.90;;;19.20;99.90;;;;;;10510418;28;20538;-67
2023/10/13 18:28:58;;;;;;;12.67;5.97;;;19.10;99.90;;;;;;10513287;28;20403;-64
2023/10/13 18:33:58;;;;;;;10.60;5.50;;;19.10;99.90;;;;;;10508634;28;20415;-67
2023/10/13 18:38:59;;;;;;;11.33;5.50;;;19.10;99.90;;;;;;10511399;28;20418;-67
2023/10/13 18:44:00;;;;;;;9.90;6.20;;;19.20;99.90;;;;;;10521030;28;20414;-65
2023/10/13 18:49:01;;;;;;;11.03;5.43;;;19.20;99.90;;;;;;10516998;28;20428;-67
2023/10/13 18:54:02;;;;;;;12.80;5.72;;;19.20;99.90;;;;;;10509954;28;20486;-67
2023/10/13 18:59:03;;;;;;;9.47;5.80;;;19.10;99.90;;;;;;10522724;28;20825;-67
2023/10/13 19:04:08;;;;;;;11.25;5.57;;;19.10;99.90;;;;;;10512266;28;20932;-67
2023/10/13 19:09:09;;;;;;;11.77;5.72;;;19.10;99.90;;;;;;10527718;28;20453;-67
2023/10/13 19:14:12;;;;;;;13.87;6.33;;;19.20;99.90;;;;;;10525923;28;20471;-66
2023/10/13 19:19:13;;;;;;;13.98;6.80;;;19.10;99.90;;;;;;10524267;28;20407;-67
2023/10/13 19:24:15;;;;;;;15.27;6.30;;;19.10;99.90;;;;;;10499445;28;20865;-67
2023/10/13 19:29:17;;;;;;;11.73;6.50;;;19.10;99.90;;;;;;10515109;28;20424;-67
2023/10/13 19:34:19;;;;;;;13.15;6.70;;;19.10;99.90;;;;;;10514675;28;20402;-65
2023/10/13 19:39:19;;;;;;;13.30;6.85;;;19.00;99.90;;;;;;10526045;28;20434;-66
2023/10/13 19:44:21;;;;;;;12.27;6.88;;;19.10;99.90;;;;;;10526963;28;20417;-67
2023/10/13 19:49:25;;;;;;;12.35;7.00;;;19.10;99.90;;;;;;10519562;28;21127;-66
2023/10/13 19:54:26;;;;;;;11.67;6.70;;;19.10;99.90;;;;;;10510719;28;20500;-67
2023/10/13 19:59:27;;;;;;;12.00;6.70;;;19.10;99.90;;;;;;10530121;28;20549;-67
2023/10/13 20:04:29;;;;;;;10.98;6.22;;;19.10;99.90;;;;;;10519919;28;20510;-67
2023/10/13 20:09:29;;;;;;;10.23;6.10;;;19.10;99.90;;;;;;10489448;28;21108;-67
2023/10/13 20:14:32;;;;;;;12.23;6.82;;;19.10;99.90;;;;;;10523554;28;20412;-66
2023/10/13 20:19:32;;;;;;;12.98;6.82;;;19.10;99.90;;;;;;10525199;28;20421;-67
2023/10/13 20:24:33;;;;;;;14.27;6.40;;;19.00;99.90;;;;;;10499960;28;21114;-66
2023/10/13 20:29:33;;;;;;;10.87;6.10;;;19.10;99.90;;;;;;10523623;28;20436;-65
2023/10/13 20:34:34;;;;;;;12.53;6.80;;;19.10;99.90;;;;;;10533675;28;21101;-65
2023/10/13 20:39:35;;;;;;;13.03;6.23;;;19.10;99.90;;;;;;10530750;28;20411;-66
2023/10/13 20:44:37;;;;;;;11.70;5.90;;;19.10;99.90;;;;;;10524432;28;20410;-65
2023/10/13 20:49:43;;;;;;;11.88;6.15;;;19.10;99.90;;;;;;10511486;28;20419;-67
2023/10/13 20:54:44;;;;;;;11.83;6.87;;;19.00;99.90;;;;;;10516524;28;20827;-67
2023/10/13 20:59:45;;;;;;;11.37;6.47;;;19.00;99.90;;;;;;10516457;28;20405;-65
2023/10/13 21:04:46;;;;;;;12.27;7.15;;;19.00;99.90;;;;;;10517820;28;20924;-66
2023/10/13 21:09:46;;;;;;;13.27;7.93;;;19.00;99.90;;;;;;10520550;28;20489;-65
2023/10/13 21:14:47;;;;;;;12.57;6.70;;;19.00;99.90;;;;;;10520938;28;20396;-66
2023/10/13 21:19:49;;;;;;;11.90;6.37;;;19.00;99.90;;;;;;10519637;28;20489;-65
2023/10/13 21:24:49;;;;;;;11.47;6.53;;;19.00;99.90;;;;;;10513671;28;20414;-66
2023/10/13 21:29:50;;;;;;;12.07;6.10;;;18.90;99.90;;;;;;10515883;28;20398;-66
2023/10/13 21:34:51;;;;;;;10.98;6.18;;;18.90;99.90;;;;;;10511721;28;20893;-65
2023/10/13 21:39:52;;;;;;;11.20;6.13;;;18.90;99.90;;;;;;10522421;28;20846;-64
2023/10/13 21:44:55;;;;;;;11.23;5.63;;;18.90;99.90;;;;;;10538769;28;20415;-66
2023/10/13 21:49:58;;;;;;;9.85;5.72;;;18.90;99.90;;;;;;10533167;28;20398;-66
2023/10/13 21:54:59;;;;;;;10.38;5.68;;;18.90;99.90;;;;;;10524382;28;20414;-65
2023/10/13 22:00:00;;;;;;;10.90;6.32;;;18.90;99.90;;;;;;10529125;28;20424;-64
2023/10/13 22:05:00;;;;;;;11.00;6.70;;;18.90;99.90;;;;;;10532657;28;20686;-66
2023/10/13 22:10:01;;;;;;;10.17;6.13;;;18.90;99.90;;;;;;10524358;28;20831;-66
2023/10/13 22:15:02;;;;;;;11.07;6.00;;;18.90;99.90;;;;;;10525924;28;20398;-66
2023/10/13 22:20:05;;;;;;;8.98;5.40;;;18.80;99.90;;;;;;10509806;28;20407;-66
2023/10/13 22:25:11;;;;;;;10.20;5.55;;;18.80;99.90;;;;;;10522243;28;20419;-66
2023/10/13 22:30:17;;;;;;;9.87;5.40;;;18.80;99.90;;;;;;10523145;28;20411;-65
2023/10/13 22:35:19;;;;;;;8.38;4.63;;;18.80;99.90;;;;;;10527815;28;20403;-66
2023/10/13 22:40:22;;;;;;;9.13;5.20;;;18.80;99.90;;;;;;10499187;28;20439;-66
2023/10/13 22:45:23;;;;;;;8.23;4.68;;;18.70;99.90;;;;;;10536046;28;20497;-65
2023/10/13 22:50:27;;;;;;;7.13;4.73;;;18.70;99.90;;;;;;10528606;28;20489;-65
2023/10/13 22:55:28;;;;;;;7.30;4.07;;;18.60;99.90;;;;;;10535228;28;20455;-66
2023/10/13 23:01:02;;;;;;;6.10;3.83;;;18.60;99.90;;;;;;10524632;28;20403;-66
2023/10/13 23:06:00;;;;;;;6.75;3.60;;;18.60;99.90;;;;;;10534096;28;20417;-65
2023/10/13 23:11:31;;;;;;;6.07;3.55;;;18.60;99.90;;;;;;10521924;28;20960;-66
2023/10/13 23:16:27;;;;;;;5.45;3.40;;;18.60;99.90;;;;;;10534783;28;20437;-63
2023/10/13 23:21:28;;;;;;;4.85;3.25;;;18.60;99.90;;;;;;10524955;28;20471;-64
2023/10/13 23:26:28;;;;;;;5.10;2.92;;;18.50;99.90;;;;;;10547030;28;20492;-66
2023/10/13 23:31:29;;;;;;;5.80;2.80;;;18.50;99.90;;;;;;10535534;28;20809;-65
2023/10/13 23:36:30;;;;;;;3.97;2.67;;;18.50;99.90;;;;;;10538470;28;20398;-67
2023/10/13 23:41:30;;;;;;;4.40;2.60;;;18.50;99.90;;;;;;10523841;28;20419;-67
2023/10/13 23:46:35;;;;;;;4.43;2.70;;;18.50;99.90;;;;;;10531203;28;20477;-66
2023/10/13 23:51:35;;;;;;;3.77;2.30;;;18.50;99.90;;;;;;10546648;28;20398;-66
2023/10/13 23:56:43;;;;;;;3.58;2.15;;;18.50;99.90;;;;;;10539368;28;20570;-66
